createdAt,value
2018-03-30T00:00:01.989Z,96.99
2018-03-30T00:02:27.755Z,97.13
2018-03-30T00:04:53.515Z,97.14
2018-03-30T00:07:19.289Z,97.26
2018-03-30T00:09:56.131Z,97.24
2018-03-30T00:12:21.886Z,96.93
2018-03-30T00:14:47.633Z,96.93
2018-03-30T00:17:13.551Z,97.10
2018-03-30T00:19:39.287Z,97.36
2018-03-30T00:22:05.018Z,97.49
2018-03-30T00:24:30.765Z,97.59
2018-03-30T00:26:56.530Z,97.35
2018-03-30T00:29:22.269Z,97.39
2018-03-30T00:31:48.014Z,97.27
2018-03-30T00:34:13.774Z,97.26
2018-03-30T00:36:39.532Z,97.68
2018-03-30T00:39:05.286Z,98.05
2018-03-30T00:41:31.041Z,98.25
2018-03-30T00:43:56.798Z,98.27
2018-03-30T00:46:22.545Z,98.31
2018-03-30T00:48:49.315Z,98.45
2018-03-30T00:51:15.243Z,98.73
2018-03-30T00:53:46.853Z,98.72
2018-03-30T00:56:12.611Z,99.00
2018-03-30T00:58:38.369Z,99.44
2018-03-30T01:01:04.227Z,99.05
2018-03-30T01:03:29.989Z,98.74
2018-03-30T01:05:55.737Z,99.32
2018-03-30T01:08:21.494Z,99.67
2018-03-30T01:10:47.255Z,99.43
2018-03-30T01:13:13.006Z,99.72
2018-03-30T01:15:38.790Z,100.00
2018-03-30T01:18:04.547Z,100.00
2018-03-30T01:20:30.297Z,100.00
2018-03-30T01:22:56.110Z,99.55
2018-03-30T01:25:21.846Z,99.32
2018-03-30T01:27:47.588Z,99.43
2018-03-30T01:30:13.371Z,99.86
2018-03-30T01:32:39.141Z,99.86
2018-03-30T01:35:04.903Z,100.00
2018-03-30T01:37:30.645Z,100.00
2018-03-30T01:39:56.399Z,100.00
2018-03-30T01:42:22.161Z,100.00
2018-03-30T01:44:47.928Z,100.00
2018-03-30T01:47:13.665Z,100.00
2018-03-30T01:49:39.494Z,100.00
2018-03-30T01:52:05.257Z,100.00
2018-03-30T01:54:31.021Z,100.00
2018-03-30T01:56:56.774Z,100.00
2018-03-30T01:59:22.543Z,100.00
2018-03-30T02:01:48.274Z,99.97
2018-03-30T02:04:14.047Z,99.58
2018-03-30T02:06:40.170Z,99.64
2018-03-30T02:09:05.939Z,99.95
2018-03-30T02:11:31.690Z,100.00
2018-03-30T02:13:57.437Z,100.00
2018-03-30T02:16:23.178Z,100.00
2018-03-30T02:18:49.075Z,99.56
2018-03-30T02:21:14.871Z,99.86
2018-03-30T02:23:40.609Z,100.00
2018-03-30T02:26:06.355Z,99.66
2018-03-30T02:28:32.097Z,99.65
2018-03-30T02:30:57.863Z,100.00
2018-03-30T02:33:23.616Z,100.00
2018-03-30T02:35:49.379Z,99.71
2018-03-30T02:38:15.116Z,99.87
2018-03-30T02:40:40.883Z,99.28
2018-03-30T02:43:06.627Z,99.68
2018-03-30T02:45:32.397Z,99.87
2018-03-30T02:47:58.158Z,99.53
2018-03-30T02:50:23.933Z,99.76
2018-03-30T02:52:49.699Z,100.00
2018-03-30T02:55:15.446Z,99.86
2018-03-30T02:57:41.207Z,99.63
2018-03-30T03:00:07.354Z,99.61
2018-03-30T03:02:33.158Z,100.00
2018-03-30T03:04:58.906Z,100.00
2018-03-30T03:07:24.651Z,100.00
2018-03-30T03:09:50.454Z,100.00
2018-03-30T03:12:16.228Z,100.00
2018-03-30T03:14:41.966Z,99.90
2018-03-30T03:17:07.722Z,100.00
2018-03-30T03:19:33.474Z,100.00
2018-03-30T03:21:59.230Z,100.00
2018-03-30T03:24:24.970Z,100.00
2018-03-30T03:26:50.738Z,100.00
2018-03-30T03:29:16.474Z,100.00
2018-03-30T03:31:42.244Z,100.00
2018-03-30T03:34:07.986Z,100.00
2018-03-30T03:36:33.742Z,100.00
2018-03-30T03:38:59.486Z,100.00
2018-03-30T03:41:25.242Z,100.00
2018-03-30T03:43:50.985Z,100.00
2018-03-30T03:46:16.737Z,100.00
2018-03-30T03:48:42.641Z,100.00
2018-03-30T03:51:08.423Z,100.00
2018-03-30T03:53:34.174Z,100.00
2018-03-30T03:55:59.926Z,100.00
2018-03-30T03:58:25.668Z,99.36
2018-03-30T04:00:51.424Z,99.15
2018-03-30T04:03:17.178Z,99.35
2018-03-30T04:05:42.929Z,99.29
2018-03-30T04:08:08.709Z,98.72
2018-03-30T04:10:34.454Z,99.05
2018-03-30T04:13:00.222Z,99.09
2018-03-30T04:15:25.966Z,99.07
2018-03-30T04:17:51.723Z,98.75
2018-03-30T04:20:17.463Z,98.34
2018-03-30T04:22:43.207Z,98.28
2018-03-30T04:25:08.950Z,97.80
2018-03-30T04:27:34.711Z,99.12
2018-03-30T04:30:00.468Z,100.00
2018-03-30T04:32:26.232Z,100.00
2018-03-30T04:34:51.983Z,99.62
2018-03-30T04:37:17.738Z,98.89
2018-03-30T04:39:43.490Z,98.86
2018-03-30T04:42:09.256Z,99.36
2018-03-30T04:44:35.006Z,99.97
2018-03-30T04:47:00.766Z,100.00
2018-03-30T04:49:26.517Z,100.00
2018-03-30T04:51:52.271Z,100.00
2018-03-30T04:54:18.012Z,100.00
2018-03-30T04:56:43.759Z,100.00
2018-03-30T04:59:09.518Z,100.00
2018-03-30T05:01:35.279Z,100.00
2018-03-30T05:04:01.026Z,100.00
2018-03-30T05:06:26.781Z,100.00
2018-03-30T05:08:52.534Z,99.75
2018-03-30T05:11:18.289Z,99.96
2018-03-30T05:13:44.049Z,99.72
2018-03-30T05:16:09.797Z,99.53
2018-03-30T05:18:35.574Z,99.47
2018-03-30T05:21:01.340Z,99.59
2018-03-30T05:23:27.095Z,100.00
2018-03-30T05:25:52.826Z,100.00
2018-03-30T05:28:18.572Z,100.00
2018-03-30T05:30:44.311Z,100.00
2018-03-30T05:33:10.079Z,100.00
2018-03-30T05:35:35.813Z,100.00
2018-03-30T05:38:01.549Z,100.00
2018-03-30T05:40:27.289Z,100.00
2018-03-30T05:42:53.046Z,100.00
2018-03-30T05:45:18.811Z,100.00
2018-03-30T05:47:44.554Z,100.00
2018-03-30T05:50:10.335Z,100.00
2018-03-30T05:52:36.092Z,100.00
2018-03-30T05:55:01.860Z,100.00
2018-03-30T05:57:27.619Z,100.00
2018-03-30T05:59:53.361Z,99.96
2018-03-30T06:02:19.117Z,100.00
2018-03-30T06:04:44.879Z,100.00
2018-03-30T06:07:10.640Z,100.00
2018-03-30T06:09:36.397Z,99.75
2018-03-30T06:12:02.157Z,100.00
2018-03-30T06:14:27.923Z,100.00
2018-03-30T06:16:53.710Z,100.00
2018-03-30T06:19:19.427Z,99.77
2018-03-30T06:21:45.177Z,99.68
2018-03-30T06:24:10.932Z,99.67
2018-03-30T06:26:36.686Z,99.43
2018-03-30T06:29:02.466Z,100.00
2018-03-30T06:31:28.207Z,100.00
2018-03-30T06:33:53.966Z,100.00
2018-03-30T06:36:19.722Z,100.00
2018-03-30T06:38:45.469Z,100.00
2018-03-30T06:41:11.239Z,100.00
2018-03-30T06:43:36.986Z,99.56
2018-03-30T06:46:02.762Z,99.59
2018-03-30T06:48:28.507Z,99.29
2018-03-30T06:50:54.267Z,98.98
2018-03-30T06:53:20.020Z,98.59
2018-03-30T06:55:45.778Z,98.52
2018-03-30T06:58:11.527Z,97.73
2018-03-30T07:00:37.283Z,97.82
2018-03-30T07:03:03.035Z,96.69
2018-03-30T07:05:28.788Z,96.84
2018-03-30T07:07:54.531Z,97.05
2018-03-30T07:10:20.297Z,95.24
2018-03-30T07:12:46.046Z,95.35
2018-03-30T07:15:11.794Z,94.18
2018-03-30T07:17:37.534Z,95.37
2018-03-30T07:20:03.297Z,94.87
2018-03-30T07:22:29.055Z,93.18
2018-03-30T07:24:54.786Z,93.72
2018-03-30T07:27:20.529Z,92.62
2018-03-30T07:29:46.263Z,91.43
2018-03-30T07:32:12.009Z,91.95
2018-03-30T07:34:37.752Z,92.12
2018-03-30T07:37:03.510Z,89.61
2018-03-30T07:39:29.255Z,90.00
2018-03-30T07:41:55.003Z,90.78
2018-03-30T07:44:20.766Z,90.29
2018-03-30T07:46:46.516Z,90.64
2018-03-30T07:49:12.265Z,90.12
2018-03-30T07:51:38.044Z,88.76
2018-03-30T07:54:03.835Z,87.71
2018-03-30T07:56:29.554Z,88.79
2018-03-30T07:58:55.309Z,87.24
2018-03-30T08:01:21.080Z,87.27
2018-03-30T08:03:46.826Z,86.35
2018-03-30T08:06:12.599Z,86.62
2018-03-30T08:08:38.347Z,86.30
2018-03-30T08:11:04.089Z,85.67
2018-03-30T08:13:29.829Z,84.40
2018-03-30T08:15:55.594Z,83.77
2018-03-30T08:18:21.325Z,83.21
2018-03-30T08:20:47.074Z,82.97
2018-03-30T08:23:12.815Z,84.12
2018-03-30T08:25:38.562Z,83.98
2018-03-30T08:28:04.315Z,82.17
2018-03-30T08:30:30.059Z,81.45
2018-03-30T08:32:55.809Z,81.22
2018-03-30T08:35:21.538Z,81.55
2018-03-30T08:37:47.305Z,82.32
2018-03-30T08:40:13.057Z,80.11
2018-03-30T08:42:38.826Z,82.86
2018-03-30T08:45:04.594Z,81.01
2018-03-30T08:47:30.344Z,80.49
2018-03-30T08:49:56.083Z,80.09
2018-03-30T08:52:21.842Z,78.89
2018-03-30T08:54:47.602Z,80.66
2018-03-30T08:57:13.345Z,79.24
2018-03-30T08:59:39.092Z,80.21
2018-03-30T09:02:04.847Z,81.97
2018-03-30T09:04:30.586Z,81.65
2018-03-30T09:06:56.332Z,79.76
2018-03-30T09:09:22.105Z,78.77
2018-03-30T09:11:47.859Z,79.69
2018-03-30T09:14:13.620Z,77.68
2018-03-30T09:16:39.378Z,78.51
2018-03-30T09:19:05.136Z,79.13
2018-03-30T09:21:30.886Z,78.08
2018-03-30T09:23:56.638Z,78.17
2018-03-30T09:26:22.382Z,78.29
2018-03-30T09:28:48.142Z,78.25
2018-03-30T09:31:13.904Z,79.55
2018-03-30T09:33:39.686Z,79.09
2018-03-30T09:36:05.438Z,78.61
2018-03-30T09:38:31.203Z,76.71
2018-03-30T09:40:56.933Z,77.15
2018-03-30T09:43:22.663Z,75.51
2018-03-30T09:45:48.421Z,75.17
2018-03-30T09:48:14.158Z,74.70
2018-03-30T09:50:39.914Z,74.66
2018-03-30T09:53:05.661Z,71.73
2018-03-30T09:55:31.407Z,72.41
2018-03-30T09:57:57.148Z,70.95
2018-03-30T10:00:22.915Z,70.36
2018-03-30T10:02:48.665Z,71.46
2018-03-30T10:05:14.415Z,72.41
2018-03-30T10:07:40.161Z,71.96
2018-03-30T10:10:05.923Z,71.83
2018-03-30T10:12:31.662Z,70.73
2018-03-30T10:14:57.412Z,71.71
2018-03-30T10:17:23.142Z,71.89
2018-03-30T10:19:48.887Z,72.67
2018-03-30T10:22:14.630Z,72.26
2018-03-30T10:24:40.402Z,73.28
2018-03-30T10:27:06.142Z,72.07
2018-03-30T10:29:31.873Z,72.28
2018-03-30T10:31:57.628Z,72.52
2018-03-30T10:34:23.358Z,71.25
2018-03-30T10:36:49.109Z,71.36
2018-03-30T10:39:14.854Z,71.25
2018-03-30T10:41:40.615Z,72.89
2018-03-30T10:44:06.370Z,72.35
2018-03-30T10:46:32.122Z,72.88
2018-03-30T10:48:57.865Z,72.90
2018-03-30T10:51:23.618Z,71.26
2018-03-30T10:53:49.358Z,71.46
2018-03-30T10:56:15.110Z,71.06
2018-03-30T10:58:40.866Z,73.16
2018-03-30T11:01:06.619Z,73.01
2018-03-30T11:03:32.352Z,73.69
2018-03-30T11:05:58.103Z,74.40
2018-03-30T11:08:23.849Z,74.06
2018-03-30T11:10:49.610Z,73.85
2018-03-30T11:13:15.346Z,74.02
2018-03-30T11:15:41.090Z,73.64
2018-03-30T11:18:06.830Z,72.62
2018-03-30T11:20:32.586Z,72.93
2018-03-30T11:22:58.318Z,71.24
2018-03-30T11:25:24.054Z,72.49
2018-03-30T11:27:49.807Z,72.18
2018-03-30T11:30:15.538Z,72.32
2018-03-30T11:32:41.282Z,72.76
2018-03-30T11:35:07.040Z,71.84
2018-03-30T11:37:32.799Z,71.93
2018-03-30T11:39:58.547Z,71.93
2018-03-30T11:42:24.288Z,72.08
2018-03-30T11:44:50.025Z,72.14
2018-03-30T11:47:15.813Z,72.35
2018-03-30T11:49:41.570Z,71.71
2018-03-30T11:52:07.346Z,71.91
2018-03-30T11:54:33.083Z,71.66
2018-03-30T11:56:58.832Z,70.30
2018-03-30T11:59:24.563Z,70.82
2018-03-30T12:01:50.334Z,71.11
2018-03-30T12:04:16.053Z,70.94
2018-03-30T12:06:41.782Z,70.31
2018-03-30T12:09:07.532Z,71.13
2018-03-30T12:11:33.265Z,71.90
2018-03-30T12:13:59.010Z,71.36
2018-03-30T12:16:24.739Z,70.94
2018-03-30T12:18:50.491Z,71.12
2018-03-30T12:21:16.222Z,71.30
2018-03-30T12:23:41.994Z,69.25
2018-03-30T12:26:07.754Z,70.88
2018-03-30T12:28:33.509Z,69.55
2018-03-30T12:30:59.280Z,69.06
2018-03-30T12:33:25.038Z,68.77
2018-03-30T12:35:50.891Z,67.19
2018-03-30T12:38:16.664Z,67.45
2018-03-30T12:40:42.413Z,68.66
2018-03-30T12:43:08.161Z,67.69
2018-03-30T12:45:34.007Z,67.08
2018-03-30T12:47:59.758Z,67.61
2018-03-30T12:50:25.520Z,68.89
2018-03-30T12:52:51.259Z,68.70
2018-03-30T12:55:16.996Z,67.11
2018-03-30T12:57:42.759Z,68.10
2018-03-30T13:00:08.500Z,67.01
2018-03-30T13:02:34.235Z,67.71
2018-03-30T13:04:59.990Z,67.59
2018-03-30T13:07:25.775Z,68.37
2018-03-30T13:09:51.528Z,67.70
2018-03-30T13:12:17.288Z,68.41
2018-03-30T13:14:43.124Z,68.33
2018-03-30T13:17:08.865Z,68.69
2018-03-30T13:19:34.627Z,68.61
2018-03-30T13:22:00.357Z,69.57
2018-03-30T13:24:26.101Z,70.29
2018-03-30T13:26:51.873Z,69.80
2018-03-30T13:29:17.630Z,69.37
2018-03-30T13:31:43.380Z,69.99
2018-03-30T13:34:09.145Z,70.60
2018-03-30T13:36:34.930Z,71.13
2018-03-30T13:39:00.691Z,69.54
2018-03-30T13:41:26.438Z,71.25
2018-03-30T13:43:52.736Z,70.65
2018-03-30T13:46:18.484Z,71.71
2018-03-30T13:48:44.243Z,71.93
2018-03-30T13:51:15.034Z,71.79
2018-03-30T13:53:47.870Z,71.03
2018-03-30T13:56:16.500Z,71.57
2018-03-30T13:58:46.243Z,70.47
2018-03-30T14:01:17.866Z,70.81
2018-03-30T14:03:49.641Z,71.40
2018-03-30T14:06:22.478Z,71.17
2018-03-30T14:08:55.120Z,71.26
2018-03-30T14:11:22.594Z,71.43
2018-03-30T14:13:48.375Z,71.19
2018-03-30T14:16:26.197Z,71.24
2018-03-30T14:18:53.731Z,71.06
2018-03-30T14:21:24.269Z,70.81
2018-03-30T14:23:52.952Z,71.62
2018-03-30T14:26:32.613Z,71.07
2018-03-30T14:29:03.250Z,70.90
2018-03-30T14:31:37.354Z,71.49
2018-03-30T14:34:06.942Z,72.10
2018-03-30T14:36:51.632Z,72.25
2018-03-30T14:42:11.935Z,74.80
2018-03-30T14:44:47.493Z,73.61
2018-03-30T14:47:16.206Z,74.25
2018-03-30T14:49:45.742Z,73.93
2018-03-30T14:52:16.489Z,73.32
2018-03-30T14:54:43.210Z,73.35
2018-03-30T14:57:09.918Z,74.16
2018-03-30T15:02:48.155Z,73.16
2018-03-30T15:05:15.871Z,73.48
2018-03-30T15:11:02.421Z,72.14
2018-03-30T15:13:31.935Z,73.05
2018-03-30T15:19:01.416Z,72.61
2018-03-30T15:21:44.090Z,72.58
2018-03-30T15:24:10.790Z,72.46
2018-03-30T15:26:38.393Z,72.21
2018-03-30T15:29:05.962Z,73.24
2018-03-30T15:31:56.429Z,73.19
2018-03-30T15:34:22.199Z,73.14
2018-03-30T15:36:49.975Z,73.80
2018-03-30T15:39:16.358Z,74.02
2018-03-30T15:41:45.943Z,73.55
2018-03-30T15:44:12.015Z,74.05
2018-03-30T15:46:39.570Z,74.06
2018-03-30T15:49:05.333Z,73.84
2018-03-30T15:51:32.082Z,74.21
2018-03-30T15:53:57.701Z,73.79
2018-03-30T15:56:26.470Z,74.36
2018-03-30T15:58:52.226Z,74.80
2018-03-30T16:01:17.969Z,74.76
2018-03-30T16:03:43.707Z,75.05
2018-03-30T16:06:09.486Z,75.13
2018-03-30T16:08:35.222Z,75.69
2018-03-30T16:13:57.425Z,75.76
2018-03-30T16:16:23.234Z,76.18
2018-03-30T16:18:54.957Z,76.52
2018-03-30T16:21:20.578Z,76.65
2018-03-30T16:23:46.187Z,76.70
2018-03-30T16:26:11.813Z,77.01
2018-03-30T16:28:37.414Z,76.90
2018-03-30T16:31:03.042Z,76.78
2018-03-30T16:33:28.650Z,77.39
2018-03-30T16:35:54.262Z,77.03
2018-03-30T16:38:19.888Z,77.03
2018-03-30T16:40:45.497Z,77.85
2018-03-30T16:43:11.109Z,77.56
2018-03-30T16:45:36.782Z,77.52
2018-03-30T16:48:02.428Z,77.72
2018-03-30T16:50:28.051Z,77.86
2018-03-30T16:52:53.686Z,77.85
2018-03-30T16:55:19.326Z,78.32
2018-03-30T16:57:44.965Z,78.72
2018-03-30T17:00:10.598Z,78.86
2018-03-30T17:02:36.214Z,78.45
2018-03-30T17:05:01.831Z,78.75
2018-03-30T17:07:27.457Z,78.63
2018-03-30T17:09:53.068Z,79.11
2018-03-30T17:12:18.706Z,79.67
2018-03-30T17:14:44.331Z,80.46
2018-03-30T17:17:09.962Z,79.87
2018-03-30T17:19:35.571Z,79.49
2018-03-30T17:22:01.232Z,79.31
2018-03-30T17:24:26.846Z,80.21
2018-03-30T17:26:52.858Z,80.42
2018-03-30T17:29:18.610Z,79.83
2018-03-30T17:31:44.410Z,79.44
2018-03-30T17:34:10.158Z,80.02
2018-03-30T17:36:35.799Z,79.88
2018-03-30T17:39:01.446Z,80.45
2018-03-30T17:41:27.092Z,80.21
2018-03-30T17:43:52.710Z,80.72
2018-03-30T17:46:18.358Z,81.14
2018-03-30T17:48:43.981Z,81.26
2018-03-30T17:51:09.615Z,81.65
2018-03-30T17:53:35.360Z,81.68
2018-03-30T17:56:00.989Z,81.57
2018-03-30T17:58:26.660Z,81.85
2018-03-30T18:00:52.276Z,81.88
2018-03-30T18:03:17.979Z,81.84
2018-03-30T18:05:43.618Z,82.16
2018-03-30T18:08:09.231Z,82.14
2018-03-30T18:10:34.854Z,82.64
2018-03-30T18:13:00.452Z,82.54
2018-03-30T18:15:26.082Z,83.25
2018-03-30T18:17:51.700Z,83.54
2018-03-30T18:20:17.339Z,83.72
2018-03-30T18:22:42.947Z,83.91
2018-03-30T18:25:08.581Z,84.45
2018-03-30T18:27:34.193Z,84.41
2018-03-30T18:29:59.819Z,84.38
2018-03-30T18:32:25.446Z,84.69
2018-03-30T18:34:51.077Z,85.05
2018-03-30T18:37:16.703Z,85.58
2018-03-30T18:39:42.330Z,85.69
2018-03-30T18:42:07.954Z,85.50
2018-03-30T18:44:33.581Z,85.82
2018-03-30T18:46:59.190Z,86.26
2018-03-30T18:49:24.814Z,86.22
2018-03-30T18:51:50.434Z,86.45
2018-03-30T18:54:16.047Z,86.52
2018-03-30T18:56:41.670Z,86.75
2018-03-30T18:59:07.302Z,86.74
2018-03-30T19:01:32.925Z,86.78
2018-03-30T19:03:58.541Z,87.05
2018-03-30T19:06:24.178Z,87.21
2018-03-30T19:08:49.798Z,87.00
2018-03-30T19:11:15.433Z,87.09
2018-03-30T19:13:41.042Z,87.08
2018-03-30T19:16:06.695Z,87.47
2018-03-30T19:18:32.323Z,87.21
2018-03-30T19:20:57.940Z,87.39
2018-03-30T19:23:23.579Z,87.85
2018-03-30T19:25:49.222Z,88.00
2018-03-30T19:28:14.843Z,88.17
2018-03-30T19:30:40.496Z,88.15
2018-03-30T19:33:06.117Z,88.16
2018-03-30T19:35:31.753Z,87.94
2018-03-30T19:37:57.374Z,87.88
2018-03-30T19:40:22.987Z,88.08
2018-03-30T19:42:48.624Z,87.85
2018-03-30T19:45:14.235Z,87.90
2018-03-30T19:47:39.861Z,87.69
2018-03-30T19:50:05.492Z,87.82
2018-03-30T19:52:31.128Z,87.80
2018-03-30T19:54:56.742Z,87.59
2018-03-30T19:57:22.382Z,87.87
2018-03-30T19:59:48.006Z,87.73
2018-03-30T20:02:13.647Z,87.55
2018-03-30T20:04:39.259Z,87.39
2018-03-30T20:07:04.878Z,87.53
2018-03-30T20:09:30.481Z,87.37
2018-03-30T20:11:56.099Z,87.60
2018-03-30T20:14:21.711Z,86.94
2018-03-30T20:16:47.338Z,87.14
2018-03-30T20:19:12.955Z,86.71
2018-03-30T20:21:38.574Z,86.61
2018-03-30T20:24:04.186Z,86.30
2018-03-30T20:26:29.822Z,86.01
2018-03-30T20:28:55.493Z,86.41
2018-03-30T20:31:21.076Z,86.41
2018-03-30T20:33:46.705Z,86.54
2018-03-30T20:36:12.323Z,86.73
2018-03-30T20:38:37.945Z,87.17
2018-03-30T20:41:03.575Z,87.18
2018-03-30T20:43:29.198Z,87.20
2018-03-30T20:45:54.806Z,87.40
2018-03-30T20:48:20.430Z,87.67
2018-03-30T20:50:46.046Z,87.73
2018-03-30T20:53:11.671Z,87.65
2018-03-30T20:55:37.276Z,87.36
2018-03-30T20:58:02.895Z,87.54
2018-03-30T21:00:28.511Z,87.62
2018-03-30T21:02:54.126Z,87.53
2018-03-30T21:05:19.741Z,87.44
2018-03-30T21:07:45.360Z,87.44
2018-03-30T21:10:10.977Z,87.90
2018-03-30T21:12:36.603Z,87.84
2018-03-30T21:15:02.221Z,87.81
2018-03-30T21:17:27.843Z,87.82
2018-03-30T21:19:53.452Z,87.95
2018-03-30T21:22:19.071Z,87.80
2018-03-30T21:24:44.694Z,87.80
2018-03-30T21:27:10.301Z,88.03
2018-03-30T21:29:35.928Z,87.89
2018-03-30T21:32:01.532Z,87.76
2018-03-30T21:34:27.162Z,87.55
2018-03-30T21:36:52.773Z,87.67
2018-03-30T21:39:18.462Z,87.96
2018-03-30T21:41:44.014Z,87.94
2018-03-30T21:44:09.649Z,88.01
2018-03-30T21:46:35.261Z,88.01
2018-03-30T21:49:00.879Z,88.18
2018-03-30T21:51:26.494Z,87.99
2018-03-30T21:53:52.097Z,87.89
2018-03-30T21:56:17.715Z,88.25
2018-03-30T21:58:43.340Z,88.33
2018-03-30T22:01:08.952Z,87.96
2018-03-30T22:03:34.579Z,88.13
2018-03-30T22:06:00.197Z,88.32
2018-03-30T22:08:25.810Z,88.07
2018-03-30T22:10:51.438Z,88.29
2018-03-30T22:13:17.046Z,88.34
2018-03-30T22:15:43.681Z,87.96
2018-03-30T22:18:09.294Z,87.90
2018-03-30T22:20:34.914Z,87.93
2018-03-30T22:23:00.534Z,87.87
2018-03-30T22:25:26.166Z,88.14
2018-03-30T22:27:51.771Z,87.70
2018-03-30T22:30:17.384Z,87.78
2018-03-30T22:32:42.996Z,87.72
2018-03-30T22:35:08.623Z,87.58
2018-03-30T22:37:34.245Z,87.56
2018-03-30T22:39:59.850Z,87.63
2018-03-30T22:42:25.488Z,87.76
2018-03-30T22:44:51.309Z,87.80
2018-03-30T22:47:16.953Z,87.54
2018-03-30T22:49:42.573Z,87.54
2018-03-30T22:52:08.206Z,87.32
2018-03-30T22:54:33.818Z,87.50
2018-03-30T22:56:59.522Z,87.28
2018-03-30T22:59:25.184Z,87.07
2018-03-30T23:01:50.898Z,87.44
2018-03-30T23:04:16.586Z,87.16
2018-03-30T23:06:42.234Z,86.97
2018-03-30T23:09:07.847Z,87.00
2018-03-30T23:11:33.612Z,86.87
2018-03-30T23:13:59.369Z,87.12
2018-03-30T23:16:25.157Z,86.89
2018-03-30T23:18:50.763Z,86.95
2018-03-30T23:21:16.592Z,87.19
2018-03-30T23:23:42.431Z,87.25
2018-03-30T23:26:08.482Z,86.76
2018-03-30T23:28:34.235Z,86.79
2018-03-30T23:31:03.896Z,86.73
2018-03-30T23:33:29.827Z,86.77
2018-03-30T23:35:55.598Z,86.76
2018-03-30T23:38:21.215Z,87.04
2018-03-30T23:40:46.917Z,86.98
2018-03-30T23:43:12.722Z,86.73
2018-03-30T23:45:38.416Z,86.76
2018-03-30T23:48:04.127Z,86.54
2018-03-30T23:50:29.925Z,86.48
2018-03-30T23:52:55.604Z,86.27
2018-03-30T23:55:21.404Z,86.23
2018-03-30T23:57:47.046Z,86.76
